Acorn Park, Oregon
Current Conditions -  °F | °C
As of 5:54 PM on Thursday 27 Nov 2014 (Local Time) from KEUG Reporting Station
Overcast Overcast  
Wind Chill: 52°   Ceiling: 3800
Heat Index: 52°   Visibility: 10mi
Dew Point: 49°   Wind: 5mph
Humidity: 89%   Direction: 180°S
Pressure: 29.95"   Gusts: NA
Location:  44.0318°N, 123.235°W
Report Text: KEUG 280154Z 18004KT 10SM OVC038 11/09 A2995 RMK AO2 RAE41 SLP142 P0001 T01110094
Loading
Personal Weather Stations






























Interactive Weather Map New forecast layout! Learn more

10-Day Weather Forecast

Advertisements
Track Severe Weather on mobile